Time;durP1;ratioP1;P1;durP2;ratioP2;P2;SDS_P1;SDS_P2;PMS_P1;PMS_P2;Temp;Humidity;BMP_temperature;BMP_pressure;BME280_temperature;BME280_humidity;BME280_pressure;Samples;Min_cycle;Max_cycle;Signal;HPM_P1;HPM_P2
2021/10/03 00:00:57;;;;;;;13.57;6.57;;;333.10;2329.60;;;;;;5050202;28;20033;-72
2021/10/03 00:03:24;;;;;;;9.23;7.78;;;333.10;2329.60;;;;;;5055351;28;20475;-72
2021/10/03 00:05:55;;;;;;;11.68;7.43;;;333.20;2329.60;;;;;;5059384;28;20507;-74
2021/10/03 00:08:22;;;;;;;12.15;6.88;;;333.20;2329.60;;;;;;5045996;28;20025;-73
2021/10/03 00:10:50;;;;;;;12.15;7.32;;;333.20;2329.60;;;;;;5053899;28;20025;-73
2021/10/03 00:13:17;;;;;;;11.55;6.75;;;333.30;2329.60;;;;;;5070850;28;20031;-73
2021/10/03 00:15:43;;;;;;;12.48;6.82;;;333.30;2329.60;;;;;;5067929;28;20032;-73
2021/10/03 00:18:13;;;;;;;15.52;7.30;;;333.30;2329.60;;;;;;5041556;28;20036;-73
2021/10/03 00:20:40;;;;;;;17.75;8.23;;;333.30;2329.60;;;;;;5051001;28;20036;-72
2021/10/03 00:23:06;;;;;;;12.23;7.55;;;333.30;2329.60;;;;;;5047708;28;20091;-74
2021/10/03 00:25:33;;;;;;;12.98;7.57;;;333.30;2329.60;;;;;;5049494;28;20049;-74
2021/10/03 00:28:00;;;;;;;12.75;7.60;;;333.30;2329.60;;;;;;5052401;28;20537;-74
2021/10/03 00:30:26;;;;;;;10.75;8.23;;;333.40;2329.60;;;;;;5054235;28;20483;-74
2021/10/03 00:32:53;;;;;;;11.27;7.72;;;333.40;2329.60;;;;;;5069512;28;20112;-74
2021/10/03 00:35:19;;;;;;;11.98;7.45;;;333.40;2329.60;;;;;;5052816;28;20024;-74
2021/10/03 00:37:45;;;;;;;11.98;7.38;;;333.40;2329.60;;;;;;5053378;28;20100;-74
2021/10/03 00:40:12;;;;;;;11.75;8.00;;;333.40;2329.60;;;;;;5052154;28;20503;-74
2021/10/03 00:42:39;;;;;;;14.88;7.78;;;333.60;2329.60;;;;;;5053479;28;20070;-74
2021/10/03 00:45:07;;;;;;;10.07;7.65;;;333.50;2329.60;;;;;;5054031;28;20028;-74
2021/10/03 00:47:33;;;;;;;10.98;6.90;;;333.60;2329.60;;;;;;5052056;28;20060;-74
2021/10/03 00:49:59;;;;;;;10.55;7.50;;;333.60;2329.60;;;;;;5054366;28;20446;-74
2021/10/03 00:52:25;;;;;;;11.98;7.63;;;333.70;2329.60;;;;;;5050009;28;20071;-74
2021/10/03 00:54:51;;;;;;;12.00;7.15;;;333.70;2329.60;;;;;;5060412;28;20029;-74
2021/10/03 00:57:17;;;;;;;13.32;8.23;;;333.70;2329.60;;;;;;5056587;28;20552;-74
2021/10/03 00:59:43;;;;;;;13.73;8.52;;;358.40;2329.60;;;;;;5066907;28;20447;-74
2021/10/03 01:02:09;;;;;;;15.85;8.10;;;358.40;2329.60;;;;;;5048382;28;20060;-74
2021/10/03 01:04:35;;;;;;;10.63;7.38;;;358.40;2329.60;;;;;;5067662;28;20037;-74
2021/10/03 01:07:00;;;;;;;11.48;7.85;;;358.40;2329.60;;;;;;5076701;28;20090;-74
2021/10/03 01:09:26;;;;;;;10.07;7.68;;;358.40;2329.60;;;;;;5055592;28;20031;-74
2021/10/03 01:11:52;;;;;;;19.52;8.15;;;358.40;2329.60;;;;;;5053964;28;20060;-74
2021/10/03 01:14:19;;;;;;;13.60;8.40;;;358.50;2329.60;;;;;;5049575;28;20022;-74
2021/10/03 01:16:47;;;;;;;9.73;6.82;;;358.50;2329.60;;;;;;5043662;28;20029;-74
2021/10/03 01:19:13;;;;;;;13.98;7.95;;;358.50;2329.60;;;;;;5051460;28;20040;-74
2021/10/03 01:21:42;;;;;;;14.10;8.95;;;358.50;2329.60;;;;;;5048366;28;20075;-73
2021/10/03 01:24:08;;;;;;;18.38;7.57;;;358.50;2329.60;;;;;;5053292;28;20044;-74
2021/10/03 01:26:33;;;;;;;11.00;8.02;;;358.50;2329.60;;;;;;5053676;28;20108;-74
2021/10/03 01:28:59;;;;;;;14.40;7.68;;;358.50;2329.60;;;;;;5053561;28;20120;-74
2021/10/03 01:31:29;;;;;;;10.57;7.38;;;358.50;2329.60;;;;;;5048512;28;20026;-74
2021/10/03 01:33:55;;;;;;;18.20;8.23;;;358.50;2329.60;;;;;;5045872;28;20021;-74
2021/10/03 01:36:21;;;;;;;13.98;7.25;;;358.50;2329.60;;;;;;5053830;28;20013;-74
2021/10/03 01:38:47;;;;;;;16.38;9.23;;;358.50;2329.60;;;;;;5052710;28;20036;-74
2021/10/03 01:41:13;;;;;;;14.18;7.85;;;358.50;2329.60;;;;;;5053716;28;20033;-74
2021/10/03 01:43:39;;;;;;;11.93;7.20;;;358.50;2329.60;;;;;;5053673;28;20499;-73
2021/10/03 01:46:05;;;;;;;17.45;8.23;;;358.50;2329.60;;;;;;5053633;28;20032;-74
2021/10/03 01:48:32;;;;;;;12.00;7.45;;;358.50;2329.60;;;;;;5053571;28;20021;-73
2021/10/03 01:51:02;;;;;;;8.60;6.57;;;358.50;2329.60;;;;;;5068889;28;20036;-74
2021/10/03 01:53:40;;;;;;;11.55;7.22;;;358.60;2329.60;;;;;;5060836;28;20480;-74
2021/10/03 01:56:07;;;;;;;13.15;7.32;;;358.60;2329.60;;;;;;5053585;28;20043;-74
2021/10/03 01:58:42;;;;;;;9.93;7.38;;;358.60;2329.60;;;;;;5048595;28;20037;-74
2021/10/03 02:01:14;;;;;;;11.65;7.57;;;358.60;2329.60;;;;;;5044179;28;20031;-74
2021/10/03 02:03:40;;;;;;;36.03;7.78;;;358.60;2329.60;;;;;;5068289;28;20057;-74
2021/10/03 02:06:06;;;;;;;8.98;7.25;;;358.60;2329.60;;;;;;5052032;28;20059;-74
2021/10/03 02:08:31;;;;;;;12.57;7.78;;;358.60;2329.60;;;;;;5052876;28;20029;-74
2021/10/03 02:10:57;;;;;;;12.35;7.28;;;358.60;2329.60;;;;;;5068450;28;20021;-73
2021/10/03 02:13:24;;;;;;;11.75;7.45;;;358.60;2329.60;;;;;;5053037;28;20025;-74
2021/10/03 02:15:50;;;;;;;14.55;8.20;;;358.60;2329.60;;;;;;5052701;28;20183;-73
2021/10/03 02:18:18;;;;;;;17.17;7.60;;;358.60;2329.60;;;;;;5053077;28;20032;-73
2021/10/03 02:20:45;;;;;;;11.38;7.20;;;358.50;2329.60;;;;;;5053058;28;20078;-73
2021/10/03 02:23:13;;;;;;;14.55;6.95;;;358.50;2329.60;;;;;;5045157;28;20252;-73
2021/10/03 02:25:47;;;;;;;16.23;7.47;;;358.50;2329.60;;;;;;5067975;28;20095;-73
2021/10/03 02:28:19;;;;;;;15.13;8.40;;;358.40;2329.60;;;;;;5042485;28;20534;-74
2021/10/03 02:30:47;;;;;;;12.60;7.70;;;358.40;2329.60;;;;;;5052804;28;20028;-73
2021/10/03 02:33:13;;;;;;;13.48;7.43;;;333.70;2329.60;;;;;;5038425;28;20075;-73
2021/10/03 02:35:39;;;;;;;11.15;7.50;;;333.70;2329.60;;;;;;5060423;28;20021;-73
2021/10/03 02:38:07;;;;;;;11.30;7.47;;;333.60;2329.60;;;;;;5037596;28;20025;-73
2021/10/03 02:40:34;;;;;;;18.05;8.48;;;333.60;2329.60;;;;;;5047845;28;20024;-73
2021/10/03 02:43:05;;;;;;;11.52;9.18;;;333.60;2329.60;;;;;;5052311;28;20025;-73
2021/10/03 02:45:32;;;;;;;14.70;8.00;;;333.50;2329.60;;;;;;5041863;28;20029;-73
2021/10/03 02:47:58;;;;;;;14.05;9.80;;;333.50;2329.60;;;;;;5063892;28;20033;-73
2021/10/03 02:50:24;;;;;;;13.75;9.35;;;333.50;2329.60;;;;;;5051766;28;20036;-74
2021/10/03 02:52:49;;;;;;;11.75;6.90;;;333.50;2329.60;;;;;;5052379;28;20100;-74
2021/10/03 02:55:15;;;;;;;12.43;7.72;;;333.50;2329.60;;;;;;5046567;28;20092;-73
2021/10/03 02:57:41;;;;;;;12.55;7.70;;;333.40;2329.60;;;;;;5044106;28;20056;-74
2021/10/03 03:00:08;;;;;;;9.95;7.18;;;333.40;2329.60;;;;;;5052242;28;20914;-73
2021/10/03 03:02:34;;;;;;;12.10;7.50;;;333.30;2329.60;;;;;;5052318;28;20071;-73
2021/10/03 03:05:00;;;;;;;10.95;7.82;;;333.30;2329.60;;;;;;5052160;28;20777;-73
2021/10/03 03:07:26;;;;;;;21.30;8.13;;;333.30;2329.60;;;;;;5044340;28;20033;-73
2021/10/03 03:09:51;;;;;;;11.07;7.15;;;333.30;2329.60;;;;;;5046028;28;20029;-73
2021/10/03 03:12:17;;;;;;;10.98;7.15;;;333.30;2329.60;;;;;;5052267;28;20107;-73
2021/10/03 03:14:43;;;;;;;13.18;7.60;;;333.30;2329.60;;;;;;5051989;28;20105;-73
2021/10/03 03:17:18;;;;;;;12.63;7.43;;;333.30;2329.60;;;;;;5052432;28;20333;-73
2021/10/03 03:19:44;;;;;;;12.65;7.68;;;333.30;2329.60;;;;;;5049851;28;20463;-73
2021/10/03 03:22:12;;;;;;;11.25;7.35;;;333.30;2329.60;;;;;;5052236;28;20039;-73
2021/10/03 03:24:38;;;;;;;11.45;8.18;;;333.20;2329.60;;;;;;5036090;28;20037;-72
2021/10/03 03:27:04;;;;;;;12.32;8.02;;;333.20;2329.60;;;;;;5050669;28;20082;-72
2021/10/03 03:29:31;;;;;;;13.60;7.82;;;333.20;2329.60;;;;;;5064985;28;20040;-73
2021/10/03 03:31:57;;;;;;;12.93;6.72;;;333.20;2329.60;;;;;;5064267;28;20021;-73
2021/10/03 03:34:23;;;;;;;10.00;6.65;;;333.10;2329.60;;;;;;5051802;28;20142;-73
2021/10/03 03:36:49;;;;;;;13.25;7.05;;;333.10;2329.60;;;;;;5049121;28;20108;-73
2021/10/03 03:39:15;;;;;;;9.43;7.10;;;333.10;2329.60;;;;;;5049627;28;20480;-73
2021/10/03 03:41:40;;;;;;;13.63;8.30;;;333.10;2329.60;;;;;;5049029;28;20035;-73
2021/10/03 03:44:06;;;;;;;10.77;6.90;;;333.00;2329.60;;;;;;5061783;28;20159;-73
2021/10/03 03:46:32;;;;;;;10.10;7.03;;;333.10;2329.60;;;;;;5051680;28;20472;-73
2021/10/03 03:48:57;;;;;;;7.40;6.45;;;333.00;2329.60;;;;;;5051868;28;20110;-73
2021/10/03 03:51:23;;;;;;;11.52;6.88;;;333.00;2329.60;;;;;;5048986;28;20061;-73
2021/10/03 03:53:49;;;;;;;12.23;6.97;;;333.00;2329.60;;;;;;5051178;28;20372;-73
2021/10/03 03:56:15;;;;;;;15.00;7.70;;;333.00;2329.60;;;;;;5051736;28;20434;-73
2021/10/03 03:58:41;;;;;;;12.43;7.63;;;333.00;2329.60;;;;;;5057820;28;20025;-73
2021/10/03 04:01:07;;;;;;;8.80;6.57;;;332.90;2329.60;;;;;;5057675;28;20032;-73
2021/10/03 04:03:32;;;;;;;10.68;6.90;;;333.00;2329.60;;;;;;5055520;28;20395;-73
2021/10/03 04:05:58;;;;;;;14.93;8.07;;;332.90;2329.60;;;;;;5055817;28;20031;-73
2021/10/03 04:08:24;;;;;;;10.57;6.45;;;332.90;2329.60;;;;;;5055316;28;20492;-73
2021/10/03 04:10:51;;;;;;;11.57;7.47;;;332.90;2329.60;;;;;;5055592;28;20051;-73
2021/10/03 04:13:18;;;;;;;14.25;6.72;;;332.90;2329.60;;;;;;5055534;28;20029;-72
2021/10/03 04:15:45;;;;;;;9.80;6.03;;;332.90;2329.60;;;;;;5055410;28;20028;-73
2021/10/03 04:18:11;;;;;;;9.27;6.93;;;332.80;2329.60;;;;;;5055261;28;20047;-73
2021/10/03 04:20:36;;;;;;;13.55;6.93;;;332.80;2329.60;;;;;;5055340;28;20021;-73
2021/10/03 04:23:02;;;;;;;12.68;7.85;;;308.10;2304.00;;;;;;5055165;28;20024;-73
2021/10/03 04:25:28;;;;;;;11.10;6.85;;;332.80;2329.60;;;;;;5055117;28;20045;-72
2021/10/03 04:27:54;;;;;;;16.27;7.18;;;308.10;2304.00;;;;;;5055295;28;20112;-73
2021/10/03 04:30:20;;;;;;;20.38;7.78;;;308.10;2304.00;;;;;;5054508;28;20028;-73
2021/10/03 04:32:45;;;;;;;10.95;7.13;;;308.10;2304.00;;;;;;5047143;28;20029;-73
2021/10/03 04:35:11;;;;;;;9.18;6.38;;;308.00;2304.00;;;;;;5058908;28;20025;-73
2021/10/03 04:37:37;;;;;;;11.77;6.95;;;308.00;2304.00;;;;;;5047037;28;20369;-73
2021/10/03 04:40:05;;;;;;;11.38;7.18;;;308.00;2304.00;;;;;;5043417;28;20025;-73
2021/10/03 04:42:30;;;;;;;8.55;6.63;;;307.90;2304.00;;;;;;5040915;28;20334;-73
2021/10/03 04:44:56;;;;;;;9.88;7.47;;;307.90;2304.00;;;;;;5057458;28;20029;-73
2021/10/03 04:47:22;;;;;;;11.10;6.45;;;307.90;2304.00;;;;;;5060139;28;20032;-73
2021/10/03 04:49:49;;;;;;;10.15;6.55;;;307.90;2304.00;;;;;;5056189;28;20029;-73
2021/10/03 04:52:15;;;;;;;9.88;6.55;;;307.80;2304.00;;;;;;5056956;28;20104;-73
2021/10/03 04:54:41;;;;;;;9.00;6.50;;;307.80;2304.00;;;;;;5044151;28;20021;-73
2021/10/03 04:57:06;;;;;;;10.55;7.28;;;307.90;2304.00;;;;;;5058587;28;20498;-73
2021/10/03 04:59:32;;;;;;;12.38;6.88;;;307.80;2304.00;;;;;;5066490;28;20032;-73
2021/10/03 05:01:58;;;;;;;12.05;7.38;;;307.80;2304.00;;;;;;5061466;28;20087;-72
2021/10/03 05:04:25;;;;;;;10.90;7.05;;;307.80;2304.00;;;;;;5068866;28;20021;-72
2021/10/03 05:06:51;;;;;;;13.85;6.43;;;307.80;2304.00;;;;;;5057173;28;20021;-72
2021/10/03 05:09:16;;;;;;;8.45;6.22;;;307.90;2304.00;;;;;;5062422;28;20090;-72
2021/10/03 05:11:42;;;;;;;12.45;7.25;;;307.90;2304.00;;;;;;5054232;28;20078;-73
2021/10/03 05:14:08;;;;;;;10.32;7.35;;;307.90;2304.00;;;;;;5051023;28;20021;-73
2021/10/03 05:16:37;;;;;;;12.00;7.10;;;307.90;2304.00;;;;;;5061002;28;20088;-73
2021/10/03 05:19:04;;;;;;;14.20;6.97;;;307.90;2304.00;;;;;;5052544;28;20025;-73
2021/10/03 05:21:30;;;;;;;11.02;7.13;;;307.80;2304.00;;;;;;5057428;28;20021;-73
2021/10/03 05:23:56;;;;;;;15.55;7.35;;;307.90;2304.00;;;;;;5053761;28;20045;-73
2021/10/03 05:26:22;;;;;;;10.35;6.82;;;307.90;2304.00;;;;;;5040140;28;20518;-73
2021/10/03 05:28:48;;;;;;;13.95;7.70;;;307.90;2304.00;;;;;;5053888;28;20052;-74
2021/10/03 05:31:14;;;;;;;11.02;6.47;;;308.00;2304.00;;;;;;5065451;28;20836;-73
2021/10/03 05:33:40;;;;;;;12.35;6.38;;;308.10;2304.00;;;;;;5043996;28;20044;-73
2021/10/03 05:36:06;;;;;;;12.70;7.43;;;308.10;2304.00;;;;;;5052292;28;20103;-73
2021/10/03 05:38:32;;;;;;;10.13;6.68;;;332.80;2329.60;;;;;;5041939;28;20036;-73
2021/10/03 05:40:58;;;;;;;11.95;6.25;;;332.90;2329.60;;;;;;5053358;28;20590;-73
2021/10/03 05:43:24;;;;;;;8.55;6.00;;;333.00;2329.60;;;;;;5053827;28;20100;-73
2021/10/03 05:45:50;;;;;;;13.07;6.60;;;333.00;2329.60;;;;;;5047214;28;20025;-73
2021/10/03 05:48:16;;;;;;;10.77;7.25;;;333.10;2329.60;;;;;;5053210;28;20090;-73
2021/10/03 05:50:42;;;;;;;9.25;6.65;;;333.30;2329.60;;;;;;5061255;28;20383;-73
2021/10/03 05:53:08;;;;;;;10.10;6.10;;;333.30;2329.60;;;;;;5058876;28;20021;-72
2021/10/03 05:55:34;;;;;;;9.07;5.97;;;333.50;2329.60;;;;;;5054199;28;20043;-72
2021/10/03 05:58:00;;;;;;;15.10;6.97;;;333.50;2329.60;;;;;;5045091;28;20480;-73
2021/10/03 06:00:27;;;;;;;12.70;6.28;;;333.70;2329.60;;;;;;5051324;28;20040;-73
2021/10/03 06:02:54;;;;;;;13.05;6.10;;;333.70;2329.60;;;;;;5053348;28;20055;-73
2021/10/03 06:05:19;;;;;;;8.48;6.15;;;358.50;2329.60;;;;;;5062036;28;20039;-73
2021/10/03 06:07:45;;;;;;;10.88;6.65;;;358.50;2329.60;;;;;;5061390;28;20028;-73
2021/10/03 06:10:11;;;;;;;10.77;6.85;;;358.60;2329.60;;;;;;5056017;28;20500;-73
2021/10/03 06:12:37;;;;;;;10.57;6.47;;;358.70;2329.60;;;;;;5051623;28;20025;-72
2021/10/03 06:15:04;;;;;;;15.40;6.85;;;358.90;2329.60;;;;;;5042593;28;20032;-72
2021/10/03 06:17:30;;;;;;;10.13;7.10;;;358.90;2329.60;;;;;;5049694;28;20056;-73
2021/10/03 06:19:55;;;;;;;8.30;5.95;;;359.00;2329.60;;;;;;5053187;28;20049;-74
2021/10/03 06:22:24;;;;;;;12.25;5.88;;;359.10;2329.60;;;;;;5053054;28;20032;-74
2021/10/03 06:24:51;;;;;;;8.13;5.97;;;359.30;2329.60;;;;;;5052169;28;20052;-74
2021/10/03 06:27:16;;;;;;;12.48;7.28;;;384.00;2329.60;;;;;;5051534;28;20548;-74
2021/10/03 06:29:42;;;;;;;12.25;6.50;;;384.10;2329.60;;;;;;5047404;28;20033;-73
2021/10/03 06:32:08;;;;;;;7.50;5.90;;;384.30;2329.60;;;;;;5062832;28;20040;-73
2021/10/03 06:34:34;;;;;;;11.25;5.90;;;384.40;2329.60;;;;;;5050750;28;20404;-74
2021/10/03 06:37:00;;;;;;;11.32;6.90;;;384.50;2329.60;;;;;;5051021;28;20042;-74
2021/10/03 06:39:25;;;;;;;12.25;5.82;;;384.60;2329.60;;;;;;5052023;28;20037;-74
2021/10/03 06:41:51;;;;;;;9.27;5.40;;;384.70;2329.60;;;;;;5056112;28;20021;-74
2021/10/03 06:44:17;;;;;;;15.02;6.63;;;384.90;2329.60;;;;;;5061112;28;20029;-74
2021/10/03 06:46:43;;;;;;;17.15;7.60;;;409.60;2355.20;;;;;;5048662;28;20082;-74
2021/10/03 06:49:08;;;;;;;10.35;5.70;;;409.80;2355.20;;;;;;5058071;28;20060;-74
2021/10/03 06:51:35;;;;;;;11.05;5.57;;;409.90;2355.20;;;;;;5052781;28;20033;-74
2021/10/03 06:54:01;;;;;;;12.77;6.72;;;410.10;2355.20;;;;;;5057498;28;20032;-74
2021/10/03 06:56:26;;;;;;;8.43;6.05;;;410.20;2355.20;;;;;;5060865;28;20040;-73
2021/10/03 06:58:52;;;;;;;10.73;5.22;;;410.30;2355.20;;;;;;5073089;28;20112;-73
2021/10/03 07:01:18;;;;;;;15.45;7.00;;;410.40;2355.20;;;;;;5059087;28;20025;-73
2021/10/03 07:03:44;;;;;;;17.13;6.55;;;435.20;2355.20;;;;;;5049355;28;20082;-74
2021/10/03 07:06:11;;;;;;;7.57;6.07;;;435.50;2355.20;;;;;;5052897;28;20154;-74
2021/10/03 07:08:37;;;;;;;14.70;5.57;;;435.70;2355.20;;;;;;5062450;28;20037;-74
2021/10/03 07:11:04;;;;;;;17.33;6.05;;;435.80;2355.20;;;;;;5051275;28;20032;-74
2021/10/03 07:13:30;;;;;;;10.98;6.35;;;435.90;2355.20;;;;;;5050024;28;20033;-74
2021/10/03 07:15:55;;;;;;;9.80;6.15;;;436.10;2355.20;;;;;;5078924;28;20071;-74
2021/10/03 07:18:21;;;;;;;14.93;6.10;;;460.80;2380.80;;;;;;5068287;28;20465;-73
2021/10/03 07:20:47;;;;;;;14.85;5.40;;;461.00;2380.80;;;;;;5048579;28;20021;-73
2021/10/03 07:23:13;;;;;;;12.75;5.47;;;461.00;2380.80;;;;;;5051591;28;20070;-74
2021/10/03 07:25:39;;;;;;;13.48;5.65;;;461.10;2380.80;;;;;;5049530;28;20064;-73
2021/10/03 07:28:05;;;;;;;11.13;5.40;;;461.20;2380.80;;;;;;5040788;28;20028;-73
2021/10/03 07:30:31;;;;;;;9.52;5.53;;;461.30;2380.80;;;;;;5051581;28;20419;-73
2021/10/03 07:32:57;;;;;;;9.25;5.38;;;461.50;2380.80;;;;;;5050064;28;20029;-74
2021/10/03 07:35:22;;;;;;;7.85;5.68;;;461.60;2380.80;;;;;;5048004;28;20025;-74
2021/10/03 07:37:48;;;;;;;18.17;6.85;;;486.40;2380.80;;;;;;5054768;28;20383;-72
2021/10/03 07:40:15;;;;;;;11.60;5.65;;;486.40;2380.80;;;;;;5054876;28;20083;-72
2021/10/03 07:42:42;;;;;;;13.57;5.75;;;486.60;2380.80;;;;;;5054968;28;20023;-75
2021/10/03 07:45:09;;;;;;;8.93;4.50;;;486.60;2380.80;;;;;;5057500;28;20025;-73
2021/10/03 07:47:35;;;;;;;10.73;5.15;;;486.90;2380.80;;;;;;5053670;28;20376;-72
2021/10/03 07:50:01;;;;;;;15.30;5.88;;;487.10;2380.80;;;;;;5054140;28;20078;-72
2021/10/03 07:52:26;;;;;;;13.20;5.38;;;487.20;2355.20;;;;;;5053451;28;20021;-72
2021/10/03 07:54:52;;;;;;;15.52;5.55;;;512.20;2304.00;;;;;;5054653;28;20383;-72
2021/10/03 07:57:19;;;;;;;14.63;5.22;;;512.20;2278.40;;;;;;5053137;28;20029;-72
2021/10/03 07:59:45;;;;;;;9.15;4.72;;;512.50;2278.40;;;;;;5054524;28;20024;-72
2021/10/03 08:02:11;;;;;;;6.35;4.60;;;512.70;2227.20;;;;;;5054651;28;20044;-72
2021/10/03 08:04:36;;;;;;;11.63;5.47;;;537.60;2227.20;;;;;;5055466;28;20025;-72
2021/10/03 08:07:02;;;;;;;13.50;5.72;;;537.80;2201.60;;;;;;5058762;28;20380;-72
2021/10/03 08:09:28;;;;;;;11.65;5.53;;;537.80;2150.40;;;;;;5057689;28;20040;-73
2021/10/03 08:11:54;;;;;;;11.57;5.30;;;512.90;2124.80;;;;;;5056465;28;20118;-72
2021/10/03 08:14:20;;;;;;;11.65;5.57;;;537.90;2150.40;;;;;;5054105;28;20036;-72
2021/10/03 08:16:46;;;;;;;10.82;5.68;;;538.20;2099.20;;;;;;5054902;28;20051;-73
2021/10/03 08:19:12;;;;;;;12.18;5.35;;;538.20;2099.20;;;;;;5050978;28;20119;-72
2021/10/03 08:21:38;;;;;;;11.40;5.50;;;538.40;2073.60;;;;;;5054168;28;20055;-72
2021/10/03 08:24:04;;;;;;;10.27;5.35;;;563.50;2073.60;;;;;;5054175;28;20186;-72
2021/10/03 08:26:30;;;;;;;14.82;5.68;;;563.70;2048.00;;;;;;5054403;28;20025;-71
2021/10/03 08:28:55;;;;;;;13.98;5.55;;;564.00;1996.80;;;;;;5050904;28;20384;-72
2021/10/03 08:31:21;;;;;;;12.23;4.68;;;564.10;1971.20;;;;;;5052668;28;20028;-72
2021/10/03 08:33:47;;;;;;;14.48;5.13;;;564.10;1945.60;;;;;;5054537;28;20071;-72
2021/10/03 08:36:13;;;;;;;11.48;5.05;;;588.90;1945.60;;;;;;5054708;28;20021;-72
2021/10/03 08:38:39;;;;;;;11.02;4.88;;;589.00;1920.00;;;;;;5052548;28;20037;-72
2021/10/03 08:41:05;;;;;;;12.40;5.88;;;589.20;1920.00;;;;;;5054009;28;20108;-72
2021/10/03 08:43:31;;;;;;;12.57;5.38;;;589.60;1868.80;;;;;;5052125;28;20380;-72
2021/10/03 08:45:57;;;;;;;14.20;5.03;;;589.60;1843.20;;;;;;5052958;28;20029;-72
2021/10/03 08:48:23;;;;;;;15.23;5.00;;;614.40;1817.60;;;;;;5054975;28;20087;-72
2021/10/03 08:50:50;;;;;;;8.50;4.43;;;614.50;1792.00;;;;;;5053615;28;20021;-72
2021/10/03 08:53:16;;;;;;;11.35;5.00;;;589.70;1792.00;;;;;;5053079;28;20021;-72
2021/10/03 08:55:43;;;;;;;11.57;5.45;;;614.50;1792.00;;;;;;5053309;28;20664;-72
2021/10/03 08:58:09;;;;;;;9.40;5.30;;;614.40;1766.40;;;;;;5051538;28;20095;-71
2021/10/03 09:00:47;;;;;;;11.82;4.63;;;589.70;1766.40;;;;;;5051453;28;20037;-72
2021/10/03 09:03:14;;;;;;;7.68;4.75;;;614.70;1766.40;;;;;;5051804;28;20032;-72
2021/10/03 09:05:46;;;;;;;9.95;5.03;;;614.80;1740.80;;;;;;5052313;28;20024;-73
2021/10/03 09:08:18;;;;;;;9.93;5.22;;;615.00;1715.20;;;;;;5053890;28;20476;-74
2021/10/03 09:11:01;;;;;;;8.77;4.78;;;615.10;1715.20;;;;;;5052109;28;20025;-73
2021/10/03 09:13:32;;;;;;;8.27;5.22;;;615.30;1689.60;;;;;;5053337;28;20550;-73
2021/10/03 09:16:25;;;;;;;10.55;5.70;;;640.00;1664.00;;;;;;5051138;28;20698;-74
2021/10/03 09:18:54;;;;;;;11.23;6.75;;;640.20;1664.00;;;;;;5053120;28;20032;-74
2021/10/03 09:21:29;;;;;;;10.82;5.43;;;640.70;1638.40;;;;;;5050268;28;20025;-73
2021/10/03 09:24:21;;;;;;;12.85;4.65;;;665.60;1638.40;;;;;;5053360;28;20049;-73
2021/10/03 09:27:01;;;;;;;11.10;4.85;;;665.60;1612.80;;;;;;5051747;28;20032;-74
2021/10/03 09:29:36;;;;;;;6.63;4.60;;;665.70;1587.20;;;;;;5051915;28;20379;-73
2021/10/03 09:32:11;;;;;;;8.55;4.93;;;640.70;1587.20;;;;;;5050294;28;20124;-73
2021/10/03 09:34:49;;;;;;;10.10;4.63;;;665.90;1587.20;;;;;;5048752;28;20029;-74
2021/10/03 09:37:25;;;;;;;8.32;4.03;;;666.30;1561.60;;;;;;5053174;28;20017;-74
2021/10/03 09:40:06;;;;;;;11.98;4.95;;;691.20;1510.40;;;;;;5055313;28;20029;-72
2021/10/03 09:42:32;;;;;;;10.77;5.63;;;691.50;1510.40;;;;;;5051783;28;20017;-72
2021/10/03 09:45:07;;;;;;;8.15;4.97;;;666.50;1510.40;;;;;;5050715;28;20017;-73
2021/10/03 09:47:33;;;;;;;9.88;5.07;;;691.20;1510.40;;;;;;5051496;28;20021;-73
2021/10/03 09:49:59;;;;;;;7.32;4.57;;;691.70;1484.80;;;;;;5052100;28;20551;-73
2021/10/03 09:52:25;;;;;;;7.10;4.55;;;691.70;1459.20;;;;;;5050752;28;20063;-72
2021/10/03 09:54:53;;;;;;;8.80;4.90;;;691.90;1459.20;;;;;;5051370;28;20025;-72
2021/10/03 09:57:19;;;;;;;9.32;5.18;;;691.80;1433.60;;;;;;5050373;28;20036;-72
2021/10/03 09:59:45;;;;;;;10.57;4.60;;;691.90;1459.20;;;;;;5049434;28;20708;-72
2021/10/03 10:02:14;;;;;;;11.57;4.30;;;717.10;1459.20;;;;;;5043093;28;20492;-72
2021/10/03 10:04:40;;;;;;;7.63;4.50;;;717.30;1433.60;;;;;;5049739;28;20705;-72
2021/10/03 10:07:05;;;;;;;10.82;5.00;;;717.30;1408.00;;;;;;5050231;28;20531;-72
2021/10/03 10:09:33;;;;;;;6.00;4.95;;;717.70;1382.40;;;;;;5048818;28;20021;-72
2021/10/03 10:12:14;;;;;;;11.23;5.10;;;717.70;1382.40;;;;;;5050608;28;20112;-72
2021/10/03 10:14:44;;;;;;;17.60;5.32;;;742.60;1382.40;;;;;;5049167;28;20033;-72
2021/10/03 10:17:26;;;;;;;10.48;4.90;;;742.70;1382.40;;;;;;5046713;28;20024;-72
2021/10/03 10:19:55;;;;;;;8.80;5.25;;;742.90;1356.80;;;;;;5048516;28;20048;-72
2021/10/03 10:22:35;;;;;;;7.78;5.28;;;743.10;1356.80;;;;;;5049982;28;20012;-72
2021/10/03 10:25:07;;;;;;;10.90;4.53;;;743.10;1356.80;;;;;;5048150;28;20041;-71
2021/10/03 10:27:33;;;;;;;10.40;5.18;;;742.70;1356.80;;;;;;5046772;28;20377;-72
2021/10/03 10:30:10;;;;;;;9.25;5.07;;;742.60;1356.80;;;;;;5049470;28;20061;-72
2021/10/03 10:32:55;;;;;;;7.82;4.93;;;743.10;1356.80;;;;;;5049331;28;20021;-72
2021/10/03 10:35:28;;;;;;;9.85;4.70;;;768.00;1331.20;;;;;;5047352;28;20423;-72
2021/10/03 10:37:57;;;;;;;9.35;5.18;;;768.00;1331.20;;;;;;5049458;28;20087;-73
2021/10/03 10:40:25;;;;;;;8.18;4.53;;;743.20;1331.20;;;;;;5050936;28;20071;-72
2021/10/03 10:42:55;;;;;;;7.88;4.80;;;768.00;1331.20;;;;;;5050031;28;20025;-72
2021/10/03 10:45:26;;;;;;;10.82;4.75;;;768.30;1305.60;;;;;;5051298;28;20029;-72
2021/10/03 10:48:11;;;;;;;8.10;4.80;;;768.00;1305.60;;;;;;5049511;28;20027;-72
2021/10/03 10:50:38;;;;;;;10.77;5.18;;;768.30;1305.60;;;;;;5048308;28;20037;-72
2021/10/03 10:53:32;;;;;;;8.05;5.22;;;768.80;1280.00;;;;;;5050584;28;20502;-72
2021/10/03 10:56:18;;;;;;;7.72;4.72;;;794.10;1280.00;;;;;;5046336;28;20396;-73
2021/10/03 10:58:53;;;;;;;;;;;794.30;1177.60;;;;;;5049713;28;20098;-73
2021/10/03 11:01:35;;;;;;;7.20;5.30;;;794.30;1203.20;;;;;;5050987;28;20307;-72
2021/10/03 11:04:23;;;;;;;8.57;4.88;;;819.20;1254.40;;;;;;5050851;28;20412;-72
2021/10/03 11:06:49;;;;;;;10.02;6.50;;;794.40;1228.80;;;;;;5048411;28;20060;-73
2021/10/03 11:09:16;;;;;;;8.93;4.80;;;819.20;1228.80;;;;;;5065629;28;20428;-73
2021/10/03 11:11:54;;;;;;;10.55;5.00;;;794.50;1228.80;;;;;;5049851;28;20017;-73
2021/10/03 11:14:24;;;;;;;10.13;4.30;;;819.70;1203.20;;;;;;5049418;28;20021;-73
2021/10/03 11:17:02;;;;;;;10.52;5.97;;;819.90;1203.20;;;;;;5050005;28;20018;-73
2021/10/03 11:19:46;;;;;;;10.50;5.80;;;844.80;1203.20;;;;;;5050815;28;20029;-72
2021/10/03 11:22:15;;;;;;;12.10;6.50;;;844.80;1203.20;;;;;;5048405;28;20048;-76
2021/10/03 11:24:48;;;;;;;8.88;5.57;;;844.80;1203.20;;;;;;5046679;28;20041;-74
2021/10/03 11:27:17;;;;;;;7.45;5.55;;;820.10;1177.60;;;;;;5046527;28;20511;-74
2021/10/03 11:29:48;;;;;;;8.55;5.32;;;844.80;1203.20;;;;;;5052129;28;20017;-73
2021/10/03 11:32:17;;;;;;;9.50;5.28;;;845.00;1203.20;;;;;;5050706;28;20460;-73
2021/10/03 11:34:53;;;;;;;11.65;5.57;;;845.30;1203.20;;;;;;5044716;28;20124;-73
2021/10/03 11:37:36;;;;;;;11.27;5.82;;;845.10;1177.60;;;;;;5052622;28;20017;-73
2021/10/03 11:40:08;;;;;;;11.15;6.15;;;845.30;1177.60;;;;;;5044441;28;20096;-73
2021/10/03 11:42:45;;;;;;;8.05;5.57;;;845.00;1177.60;;;;;;5050781;28;20027;-73
2021/10/03 11:45:16;;;;;;;12.00;5.38;;;844.80;1177.60;;;;;;5047861;28;20021;-73
2021/10/03 11:47:47;;;;;;;11.73;5.85;;;845.00;1177.60;;;;;;5047392;28;20029;-73
2021/10/03 11:50:17;;;;;;;13.10;5.60;;;845.50;1177.60;;;;;;5047209;28;20375;-73
2021/10/03 11:52:44;;;;;;;12.68;5.50;;;845.30;1177.60;;;;;;5048822;28;20449;-73
2021/10/03 11:55:20;;;;;;;9.43;5.32;;;845.30;1152.00;;;;;;5046813;28;20050;-73
2021/10/03 11:57:48;;;;;;;11.27;6.10;;;845.50;1152.00;;;;;;5049331;28;20028;-73
2021/10/03 12:00:25;;;;;;;11.65;5.28;;;845.30;1177.60;;;;;;5049343;28;20033;-73
2021/10/03 12:03:02;;;;;;;9.23;5.63;;;870.40;1152.00;;;;;;5045851;28;20479;-73
2021/10/03 12:05:31;;;;;;;8.82;5.22;;;845.50;1152.00;;;;;;5047516;28;20436;-73
2021/10/03 12:08:03;;;;;;;8.27;5.25;;;870.60;1152.00;;;;;;5049869;28;20036;-73
2021/10/03 12:10:43;;;;;;;7.45;5.28;;;845.50;1152.00;;;;;;5046176;28;20047;-73
2021/10/03 12:13:15;;;;;;;11.85;5.05;;;870.40;1126.40;;;;;;5048285;28;20017;-74
2021/10/03 12:16:12;;;;;;;8.45;4.95;;;870.60;1126.40;;;;;;5047428;28;20021;-74